TimeEST,TemperatureF,Dew PointF,Humidity,Sea Level PressureIn,VisibilityMPH,Wind Direction,Wind SpeedMPH,Gust SpeedMPH,PrecipitationIn,Events,Conditions,WindDirDegrees,DateUTC
12:53 AM,66.2,60.8,83,30.20,10.0,ENE,9.2,-,N/A,,Overcast,70,2013-01-19 05:53:00
1:11 AM,66.2,60.8,83,30.20,2.5,East,12.7,19.6,0.05,Rain,Rain,80,2013-01-19 06:11:00
1:14 AM,66.2,60.8,83,30.20,3.0,East,10.4,19.6,0.05,Rain,Light Rain,80,2013-01-19 06:14:00
1:53 AM,66.0,62.1,87,30.19,8.0,ENE,10.4,-,0.07,Rain,Light Rain,70,2013-01-19 06:53:00
2:53 AM,66.0,61.0,84,30.18,10.0,ENE,8.1,16.1,0.02,,Mostly Cloudy,70,2013-01-19 07:53:00
3:53 AM,66.0,61.0,84,30.18,10.0,NE,5.8,-,N/A,,Scattered Clouds,50,2013-01-19 08:53:00
4:53 AM,66.0,61.0,84,30.18,10.0,NE,6.9,-,N/A,,Partly Cloudy,40,2013-01-19 09:53:00
5:53 AM,66.9,62.1,84,30.18,10.0,NNE,4.6,-,N/A,,Overcast,30,2013-01-19 10:53:00
6:53 AM,68.0,61.0,78,30.19,10.0,NE,5.8,-,N/A,,Overcast,50,2013-01-19 11:53:00
7:53 AM,66.9,62.1,84,30.21,10.0,NNE,3.5,-,N/A,,Scattered Clouds,20,2013-01-19 12:53:00
8:53 AM,72.0,61.0,68,30.22,10.0,ENE,5.8,-,N/A,,Mostly Cloudy,70,2013-01-19 13:53:00
9:53 AM,73.0,63.0,71,30.24,10.0,ENE,10.4,17.3,N/A,,Mostly Cloudy,60,2013-01-19 14:53:00
10:53 AM,73.9,62.1,66,30.22,10.0,ENE,10.4,19.6,N/A,,Overcast,70,2013-01-19 15:53:00
11:18 AM,73.4,62.6,69,30.22,10.0,ENE,8.1,-,N/A,,Overcast,70,2013-01-19 16:18:00
11:30 AM,73.4,62.6,69,30.22,9.0,ENE,8.1,-,0.00,Rain,Light Rain,70,2013-01-19 16:30:00
11:46 AM,71.6,64.4,78,30.21,2.5,East,10.4,-,0.02,Rain,Light Rain,80,2013-01-19 16:46:00
11:53 AM,71.1,64.9,81,30.21,7.0,East,8.1,-,0.02,Rain,Light Rain,80,2013-01-19 16:53:00
12:53 PM,73.9,63.0,68,30.17,10.0,ENE,5.8,-,0.00,,Overcast,70,2013-01-19 17:53:00
1:40 PM,73.4,64.4,73,30.15,10.0,ENE,5.8,-,N/A,,Overcast,60,2013-01-19 18:40:00
1:53 PM,73.0,64.0,73,30.14,10.0,Variable,5.8,-,N/A,,Overcast,0,2013-01-19 18:53:00
2:00 PM,73.4,64.4,73,30.14,10.0,ENE,9.2,-,N/A,,Overcast,60,2013-01-19 19:00:00
2:53 PM,72.0,63.0,73,30.13,10.0,Variable,5.8,-,0.01,Rain,Light Rain,0,2013-01-19 19:53:00
3:53 PM,69.1,64.9,87,30.13,4.0,ENE,5.8,-,0.00,Rain,Light Rain,60,2013-01-19 20:53:00
4:07 PM,69.8,64.4,83,30.14,2.0,East,10.4,-,0.00,Rain,Light Rain,90,2013-01-19 21:07:00
4:38 PM,69.8,66.2,88,30.14,8.0,Calm,Calm,-,0.02,Rain,Light Rain,0,2013-01-19 21:38:00
4:50 PM,69.8,66.2,88,30.13,10.0,NE,3.5,-,0.02,,Overcast,40,2013-01-19 21:50:00
4:53 PM,69.1,64.9,87,30.13,10.0,NE,3.5,-,0.02,,Overcast,40,2013-01-19 21:53:00
5:20 PM,68.0,62.6,83,30.13,5.0,ENE,6.9,-,0.01,Rain,Light Rain,60,2013-01-19 22:20:00
5:53 PM,66.9,64.0,90,30.14,5.0,Calm,Calm,-,0.01,Rain,Light Rain,0,2013-01-19 22:53:00
6:38 PM,66.2,64.4,94,30.15,3.0,East,8.1,-,0.02,Rain,Light Rain,100,2013-01-19 23:38:00
6:45 PM,66.2,64.4,94,30.15,2.0,East,6.9,-,0.04,Rain,Rain,90,2013-01-19 23:45:00
6:53 PM,66.9,64.0,90,30.16,2.0,East,4.6,-,0.06,Rain,Rain,80,2013-01-19 23:53:00
7:16 PM,66.2,64.4,94,30.16,2.5,Calm,Calm,-,0.05,Rain,Rain,0,2013-01-20 00:16:00
7:28 PM,66.2,64.4,94,30.16,2.5,Calm,Calm,-,0.06,Rain,Light Rain,0,2013-01-20 00:28:00
7:33 PM,66.2,64.4,94,30.17,3.0,Calm,Calm,-,0.06,Rain,Light Rain,0,2013-01-20 00:33:00
7:53 PM,66.9,64.0,90,30.16,7.0,NNE,3.5,-,0.06,Rain,Light Rain,20,2013-01-20 00:53:00
8:53 PM,66.0,64.0,93,30.17,10.0,North,3.5,-,0.00,,Overcast,360,2013-01-20 01:53:00
9:06 PM,66.2,64.4,94,30.16,10.0,Calm,Calm,-,N/A,,Overcast,0,2013-01-20 02:06:00
9:36 PM,66.2,64.4,94,30.16,10.0,North,3.5,-,N/A,,Overcast,360,2013-01-20 02:36:00
9:53 PM,66.9,64.9,93,30.15,10.0,North,3.5,-,N/A,,Overcast,360,2013-01-20 02:53:00
10:06 PM,68.0,66.2,94,30.15,10.0,NNW,3.5,-,N/A,,Overcast,340,2013-01-20 03:06:00
10:53 PM,66.9,64.9,93,30.14,10.0,Calm,Calm,-,N/A,,Overcast,0,2013-01-20 03:53:00
11:09 PM,66.2,64.4,94,30.14,10.0,North,3.5,-,N/A,,Overcast,360,2013-01-20 04:09:00
11:53 PM,66.9,64.9,93,30.13,10.0,North,3.5,-,N/A,,Mostly Cloudy,10,2013-01-20 04:53:00